sensor_id;sensor_type;location;lat;lon;timestamp;P1;durP1;ratioP1;P2;durP2;ratioP2
28431;SDS011;15664;51.302;7.744;2023-01-28T00:00:32;13.35;;;5.10;;
28431;SDS011;15664;51.302;7.744;2023-01-28T00:02:58;12.40;;;4.60;;
28431;SDS011;15664;51.302;7.744;2023-01-28T00:05:23;11.73;;;4.57;;
28431;SDS011;15664;51.302;7.744;2023-01-28T00:07:49;10.70;;;4.60;;
28431;SDS011;15664;51.302;7.744;2023-01-28T00:10:14;15.38;;;5.15;;
28431;SDS011;15664;51.302;7.744;2023-01-28T00:12:40;15.20;;;4.93;;
28431;SDS011;15664;51.302;7.744;2023-01-28T00:15:06;14.27;;;5.15;;
28431;SDS011;15664;51.302;7.744;2023-01-28T00:17:32;16.47;;;5.10;;
28431;SDS011;15664;51.302;7.744;2023-01-28T00:19:57;15.98;;;5.25;;
28431;SDS011;15664;51.302;7.744;2023-01-28T00:22:22;12.18;;;4.68;;
28431;SDS011;15664;51.302;7.744;2023-01-28T00:24:48;14.00;;;4.47;;
28431;SDS011;15664;51.302;7.744;2023-01-28T00:27:13;13.97;;;5.37;;
28431;SDS011;15664;51.302;7.744;2023-01-28T00:29:38;12.47;;;4.63;;
28431;SDS011;15664;51.302;7.744;2023-01-28T00:32:04;14.40;;;5.57;;
28431;SDS011;15664;51.302;7.744;2023-01-28T00:34:29;14.38;;;5.38;;
28431;SDS011;15664;51.302;7.744;2023-01-28T00:36:55;16.80;;;5.03;;
28431;SDS011;15664;51.302;7.744;2023-01-28T00:39:23;17.70;;;6.20;;
28431;SDS011;15664;51.302;7.744;2023-01-28T00:41:50;14.98;;;5.68;;
28431;SDS011;15664;51.302;7.744;2023-01-28T00:44:16;14.57;;;5.45;;
28431;SDS011;15664;51.302;7.744;2023-01-28T00:46:41;15.33;;;5.07;;
28431;SDS011;15664;51.302;7.744;2023-01-28T00:49:06;14.47;;;5.20;;
28431;SDS011;15664;51.302;7.744;2023-01-28T00:51:32;13.23;;;4.45;;
28431;SDS011;15664;51.302;7.744;2023-01-28T00:53:58;11.63;;;4.40;;
28431;SDS011;15664;51.302;7.744;2023-01-28T00:56:25;13.75;;;5.20;;
28431;SDS011;15664;51.302;7.744;2023-01-28T00:58:50;13.97;;;4.93;;
28431;SDS011;15664;51.302;7.744;2023-01-28T01:01:21;13.27;;;4.83;;
28431;SDS011;15664;51.302;7.744;2023-01-28T01:03:48;10.68;;;4.57;;
28431;SDS011;15664;51.302;7.744;2023-01-28T01:06:22;11.93;;;4.53;;
28431;SDS011;15664;51.302;7.744;2023-01-28T01:08:49;12.52;;;4.35;;
28431;SDS011;15664;51.302;7.744;2023-01-28T01:11:16;11.20;;;4.18;;
28431;SDS011;15664;51.302;7.744;2023-01-28T01:13:42;12.90;;;4.33;;
28431;SDS011;15664;51.302;7.744;2023-01-28T01:18:37;14.52;;;4.68;;
28431;SDS011;15664;51.302;7.744;2023-01-28T01:21:10;10.60;;;4.20;;
28431;SDS011;15664;51.302;7.744;2023-01-28T01:23:37;11.52;;;4.22;;
28431;SDS011;15664;51.302;7.744;2023-01-28T01:26:03;12.50;;;4.80;;
28431;SDS011;15664;51.302;7.744;2023-01-28T01:28:30;11.18;;;4.15;;
28431;SDS011;15664;51.302;7.744;2023-01-28T01:30:59;13.53;;;4.37;;
28431;SDS011;15664;51.302;7.744;2023-01-28T01:33:27;12.20;;;4.63;;
28431;SDS011;15664;51.302;7.744;2023-01-28T01:35:53;11.40;;;4.13;;
28431;SDS011;15664;51.302;7.744;2023-01-28T01:38:19;10.95;;;4.18;;
28431;SDS011;15664;51.302;7.744;2023-01-28T01:40:44;18.07;;;5.40;;
28431;SDS011;15664;51.302;7.744;2023-01-28T01:43:20;13.03;;;4.57;;
28431;SDS011;15664;51.302;7.744;2023-01-28T01:45:48;18.65;;;5.53;;
28431;SDS011;15664;51.302;7.744;2023-01-28T01:48:24;16.55;;;5.57;;
28431;SDS011;15664;51.302;7.744;2023-01-28T01:50:58;18.13;;;6.37;;
28431;SDS011;15664;51.302;7.744;2023-01-28T01:53:26;17.95;;;6.20;;
28431;SDS011;15664;51.302;7.744;2023-01-28T01:55:54;17.25;;;5.68;;
28431;SDS011;15664;51.302;7.744;2023-01-28T01:58:25;17.02;;;5.93;;
28431;SDS011;15664;51.302;7.744;2023-01-28T02:00:53;16.98;;;5.40;;
28431;SDS011;15664;51.302;7.744;2023-01-28T02:03:22;17.77;;;5.93;;
28431;SDS011;15664;51.302;7.744;2023-01-28T02:05:53;15.98;;;5.22;;
28431;SDS011;15664;51.302;7.744;2023-01-28T02:08:19;14.90;;;5.77;;
28431;SDS011;15664;51.302;7.744;2023-01-28T02:10:59;16.30;;;5.80;;
28431;SDS011;15664;51.302;7.744;2023-01-28T02:13:30;15.60;;;5.90;;
28431;SDS011;15664;51.302;7.744;2023-01-28T02:15:59;15.15;;;5.38;;
28431;SDS011;15664;51.302;7.744;2023-01-28T02:18:25;16.95;;;5.85;;
28431;SDS011;15664;51.302;7.744;2023-01-28T02:21:02;15.23;;;5.27;;
28431;SDS011;15664;51.302;7.744;2023-01-28T02:34:50;17.75;;;6.03;;
28431;SDS011;15664;51.302;7.744;2023-01-28T02:37:26;16.90;;;5.03;;
28431;SDS011;15664;51.302;7.744;2023-01-28T02:39:58;14.18;;;5.68;;
28431;SDS011;15664;51.302;7.744;2023-01-28T02:42:29;13.17;;;4.63;;
28431;SDS011;15664;51.302;7.744;2023-01-28T02:44:58;13.52;;;4.47;;
28431;SDS011;15664;51.302;7.744;2023-01-28T02:47:24;13.65;;;5.38;;
28431;SDS011;15664;51.302;7.744;2023-01-28T02:50:10;15.27;;;4.63;;
28431;SDS011;15664;51.302;7.744;2023-01-28T02:59:02;11.88;;;4.38;;
28431;SDS011;15664;51.302;7.744;2023-01-28T03:02:02;5.88;;;2.80;;
28431;SDS011;15664;51.302;7.744;2023-01-28T03:07:33;7.03;;;2.70;;
28431;SDS011;15664;51.302;7.744;2023-01-28T03:10:02;11.27;;;3.80;;
28431;SDS011;15664;51.302;7.744;2023-01-28T03:12:30;13.20;;;4.88;;
28431;SDS011;15664;51.302;7.744;2023-01-28T03:15:22;9.68;;;4.03;;
28431;SDS011;15664;51.302;7.744;2023-01-28T03:18:17;12.27;;;4.53;;
28431;SDS011;15664;51.302;7.744;2023-01-28T03:21:07;13.18;;;4.85;;
28431;SDS011;15664;51.302;7.744;2023-01-28T03:24:05;12.60;;;4.40;;
28431;SDS011;15664;51.302;7.744;2023-01-28T03:26:54;6.70;;;2.63;;
28431;SDS011;15664;51.302;7.744;2023-01-28T03:29:52;11.63;;;4.13;;
28431;SDS011;15664;51.302;7.744;2023-01-28T03:32:40;9.65;;;3.50;;
28431;SDS011;15664;51.302;7.744;2023-01-28T03:35:27;13.05;;;4.95;;
28431;SDS011;15664;51.302;7.744;2023-01-28T03:38:18;9.05;;;2.55;;
28431;SDS011;15664;51.302;7.744;2023-01-28T03:40:48;12.38;;;4.30;;
28431;SDS011;15664;51.302;7.744;2023-01-28T03:43:15;13.30;;;4.95;;
28431;SDS011;15664;51.302;7.744;2023-01-28T03:45:43;12.77;;;4.95;;
28431;SDS011;15664;51.302;7.744;2023-01-28T03:48:10;5.30;;;2.05;;
28431;SDS011;15664;51.302;7.744;2023-01-28T03:50:37;6.45;;;3.03;;
28431;SDS011;15664;51.302;7.744;2023-01-28T03:53:02;12.68;;;4.85;;
28431;SDS011;15664;51.302;7.744;2023-01-28T03:55:51;13.00;;;4.57;;
28431;SDS011;15664;51.302;7.744;2023-01-28T03:58:17;16.13;;;5.10;;
28431;SDS011;15664;51.302;7.744;2023-01-28T04:00:44;13.88;;;4.47;;
28431;SDS011;15664;51.302;7.744;2023-01-28T04:03:12;15.20;;;4.18;;
28431;SDS011;15664;51.302;7.744;2023-01-28T04:06:11;14.20;;;4.40;;
28431;SDS011;15664;51.302;7.744;2023-01-28T04:08:55;16.73;;;4.28;;
28431;SDS011;15664;51.302;7.744;2023-01-28T04:11:31;13.02;;;5.03;;
28431;SDS011;15664;51.302;7.744;2023-01-28T04:14:00;15.30;;;5.40;;
28431;SDS011;15664;51.302;7.744;2023-01-28T04:16:32;14.07;;;4.83;;
28431;SDS011;15664;51.302;7.744;2023-01-28T04:18:58;13.82;;;5.25;;
28431;SDS011;15664;51.302;7.744;2023-01-28T04:21:23;12.80;;;4.83;;
28431;SDS011;15664;51.302;7.744;2023-01-28T04:23:49;13.33;;;4.70;;
28431;SDS011;15664;51.302;7.744;2023-01-28T04:26:14;16.27;;;5.10;;
28431;SDS011;15664;51.302;7.744;2023-01-28T04:28:39;14.63;;;5.05;;
28431;SDS011;15664;51.302;7.744;2023-01-28T04:31:05;11.00;;;4.30;;
28431;SDS011;15664;51.302;7.744;2023-01-28T04:33:39;12.43;;;4.27;;
28431;SDS011;15664;51.302;7.744;2023-01-28T04:36:17;12.38;;;4.38;;
28431;SDS011;15664;51.302;7.744;2023-01-28T04:38:56;13.07;;;4.75;;
28431;SDS011;15664;51.302;7.744;2023-01-28T04:41:48;16.45;;;5.72;;
28431;SDS011;15664;51.302;7.744;2023-01-28T04:44:22;13.30;;;4.72;;
28431;SDS011;15664;51.302;7.744;2023-01-28T04:47:08;9.90;;;4.10;;
28431;SDS011;15664;51.302;7.744;2023-01-28T04:49:47;11.65;;;4.63;;
28431;SDS011;15664;51.302;7.744;2023-01-28T04:52:27;11.73;;;4.47;;
28431;SDS011;15664;51.302;7.744;2023-01-28T04:55:07;13.20;;;4.43;;
28431;SDS011;15664;51.302;7.744;2023-01-28T04:57:33;10.73;;;4.70;;
28431;SDS011;15664;51.302;7.744;2023-01-28T04:59:59;14.00;;;5.13;;
28431;SDS011;15664;51.302;7.744;2023-01-28T05:02:25;14.83;;;5.53;;
28431;SDS011;15664;51.302;7.744;2023-01-28T05:04:51;16.55;;;5.65;;
28431;SDS011;15664;51.302;7.744;2023-01-28T05:07:38;10.47;;;4.23;;
28431;SDS011;15664;51.302;7.744;2023-01-28T05:10:03;17.80;;;4.90;;
28431;SDS011;15664;51.302;7.744;2023-01-28T05:12:29;12.20;;;4.63;;
28431;SDS011;15664;51.302;7.744;2023-01-28T05:14:59;10.57;;;4.22;;
28431;SDS011;15664;51.302;7.744;2023-01-28T05:17:26;11.73;;;4.35;;
28431;SDS011;15664;51.302;7.744;2023-01-28T05:19:51;12.93;;;5.03;;
28431;SDS011;15664;51.302;7.744;2023-01-28T05:22:20;12.20;;;4.77;;
28431;SDS011;15664;51.302;7.744;2023-01-28T05:25:07;13.48;;;5.10;;
28431;SDS011;15664;51.302;7.744;2023-01-28T05:27:33;14.57;;;5.30;;
28431;SDS011;15664;51.302;7.744;2023-01-28T05:29:58;9.87;;;3.53;;
28431;SDS011;15664;51.302;7.744;2023-01-28T05:32:24;13.33;;;4.67;;
28431;SDS011;15664;51.302;7.744;2023-01-28T05:34:50;12.27;;;5.03;;
28431;SDS011;15664;51.302;7.744;2023-01-28T05:37:15;14.87;;;5.30;;
28431;SDS011;15664;51.302;7.744;2023-01-28T05:39:41;12.93;;;5.13;;
28431;SDS011;15664;51.302;7.744;2023-01-28T05:42:06;16.23;;;5.00;;
28431;SDS011;15664;51.302;7.744;2023-01-28T05:44:34;11.73;;;4.85;;
28431;SDS011;15664;51.302;7.744;2023-01-28T05:47:18;12.00;;;4.80;;
28431;SDS011;15664;51.302;7.744;2023-01-28T05:49:57;12.90;;;4.63;;
28431;SDS011;15664;51.302;7.744;2023-01-28T05:52:31;14.75;;;4.38;;
28431;SDS011;15664;51.302;7.744;2023-01-28T05:54:56;13.45;;;4.97;;
28431;SDS011;15664;51.302;7.744;2023-01-28T05:57:22;16.97;;;5.13;;
28431;SDS011;15664;51.302;7.744;2023-01-28T05:59:50;11.43;;;4.05;;
28431;SDS011;15664;51.302;7.744;2023-01-28T06:02:15;14.60;;;5.20;;
28431;SDS011;15664;51.302;7.744;2023-01-28T06:04:41;14.57;;;4.72;;
28431;SDS011;15664;51.302;7.744;2023-01-28T06:07:07;11.18;;;4.43;;
28431;SDS011;15664;51.302;7.744;2023-01-28T06:09:34;14.27;;;5.00;;
28431;SDS011;15664;51.302;7.744;2023-01-28T06:12:00;14.82;;;5.18;;
28431;SDS011;15664;51.302;7.744;2023-01-28T06:14:25;13.00;;;4.97;;
28431;SDS011;15664;51.302;7.744;2023-01-28T06:17:26;12.02;;;5.22;;
28431;SDS011;15664;51.302;7.744;2023-01-28T06:20:06;10.48;;;4.40;;
28431;SDS011;15664;51.302;7.744;2023-01-28T06:22:34;10.52;;;4.40;;
28431;SDS011;15664;51.302;7.744;2023-01-28T06:24:59;14.73;;;4.70;;
28431;SDS011;15664;51.302;7.744;2023-01-28T06:27:25;14.38;;;5.95;;
28431;SDS011;15664;51.302;7.744;2023-01-28T06:29:51;12.65;;;4.75;;
28431;SDS011;15664;51.302;7.744;2023-01-28T06:32:17;13.00;;;4.43;;
28431;SDS011;15664;51.302;7.744;2023-01-28T06:34:42;12.63;;;4.87;;
28431;SDS011;15664;51.302;7.744;2023-01-28T06:37:07;15.97;;;5.03;;
28431;SDS011;15664;51.302;7.744;2023-01-28T06:39:33;12.30;;;4.80;;
28431;SDS011;15664;51.302;7.744;2023-01-28T06:41:58;11.67;;;4.70;;
28431;SDS011;15664;51.302;7.744;2023-01-28T06:44:24;12.47;;;5.17;;
28431;SDS011;15664;51.302;7.744;2023-01-28T06:46:49;11.90;;;4.43;;
28431;SDS011;15664;51.302;7.744;2023-01-28T06:49:15;11.70;;;4.57;;
28431;SDS011;15664;51.302;7.744;2023-01-28T06:51:40;15.80;;;4.77;;
28431;SDS011;15664;51.302;7.744;2023-01-28T06:54:05;13.37;;;5.03;;
28431;SDS011;15664;51.302;7.744;2023-01-28T06:56:31;15.83;;;5.63;;
28431;SDS011;15664;51.302;7.744;2023-01-28T06:58:56;14.85;;;5.25;;
28431;SDS011;15664;51.302;7.744;2023-01-28T07:01:22;13.97;;;5.40;;
28431;SDS011;15664;51.302;7.744;2023-01-28T07:03:47;14.93;;;5.30;;
28431;SDS011;15664;51.302;7.744;2023-01-28T07:06:12;15.80;;;5.97;;
28431;SDS011;15664;51.302;7.744;2023-01-28T07:08:38;15.43;;;6.50;;
28431;SDS011;15664;51.302;7.744;2023-01-28T07:11:03;16.30;;;6.20;;
28431;SDS011;15664;51.302;7.744;2023-01-28T07:13:29;16.95;;;5.93;;
28431;SDS011;15664;51.302;7.744;2023-01-28T07:15:55;13.40;;;5.77;;
28431;SDS011;15664;51.302;7.744;2023-01-28T07:18:20;15.63;;;5.88;;
28431;SDS011;15664;51.302;7.744;2023-01-28T07:20:46;14.27;;;5.30;;
28431;SDS011;15664;51.302;7.744;2023-01-28T07:23:11;13.53;;;5.20;;
28431;SDS011;15664;51.302;7.744;2023-01-28T07:25:36;12.33;;;4.77;;
28431;SDS011;15664;51.302;7.744;2023-01-28T07:28:02;12.17;;;3.90;;
28431;SDS011;15664;51.302;7.744;2023-01-28T07:30:27;12.70;;;4.27;;
28431;SDS011;15664;51.302;7.744;2023-01-28T07:32:53;9.53;;;3.83;;
28431;SDS011;15664;51.302;7.744;2023-01-28T07:35:19;11.23;;;4.07;;
28431;SDS011;15664;51.302;7.744;2023-01-28T07:37:55;12.13;;;4.95;;
28431;SDS011;15664;51.302;7.744;2023-01-28T07:40:22;11.67;;;5.23;;
28431;SDS011;15664;51.302;7.744;2023-01-28T07:42:47;8.95;;;3.80;;
28431;SDS011;15664;51.302;7.744;2023-01-28T07:45:13;10.93;;;4.27;;
28431;SDS011;15664;51.302;7.744;2023-01-28T07:47:39;11.82;;;4.22;;
28431;SDS011;15664;51.302;7.744;2023-01-28T07:50:05;12.03;;;4.40;;
28431;SDS011;15664;51.302;7.744;2023-01-28T07:52:30;10.00;;;4.50;;
28431;SDS011;15664;51.302;7.744;2023-01-28T07:54:55;11.43;;;4.67;;
28431;SDS011;15664;51.302;7.744;2023-01-28T07:57:21;11.77;;;4.60;;
28431;SDS011;15664;51.302;7.744;2023-01-28T07:59:49;10.30;;;3.93;;
28431;SDS011;15664;51.302;7.744;2023-01-28T08:02:17;11.23;;;4.63;;
28431;SDS011;15664;51.302;7.744;2023-01-28T08:04:42;9.70;;;4.03;;
28431;SDS011;15664;51.302;7.744;2023-01-28T08:07:08;11.27;;;4.60;;
28431;SDS011;15664;51.302;7.744;2023-01-28T08:09:33;10.75;;;4.10;;
28431;SDS011;15664;51.302;7.744;2023-01-28T08:12:00;11.98;;;4.85;;
28431;SDS011;15664;51.302;7.744;2023-01-28T08:14:26;10.55;;;4.43;;
28431;SDS011;15664;51.302;7.744;2023-01-28T08:16:52;10.88;;;4.57;;
28431;SDS011;15664;51.302;7.744;2023-01-28T08:19:17;13.03;;;5.13;;
28431;SDS011;15664;51.302;7.744;2023-01-28T08:21:46;11.45;;;4.38;;
28431;SDS011;15664;51.302;7.744;2023-01-28T08:24:11;12.30;;;4.80;;
28431;SDS011;15664;51.302;7.744;2023-01-28T08:26:37;12.70;;;4.67;;
28431;SDS011;15664;51.302;7.744;2023-01-28T08:29:02;15.50;;;5.07;;
28431;SDS011;15664;51.302;7.744;2023-01-28T08:31:27;12.43;;;4.43;;
28431;SDS011;15664;51.302;7.744;2023-01-28T08:33:53;12.83;;;5.23;;
28431;SDS011;15664;51.302;7.744;2023-01-28T08:36:18;12.80;;;4.70;;
28431;SDS011;15664;51.302;7.744;2023-01-28T08:38:44;12.00;;;4.80;;
28431;SDS011;15664;51.302;7.744;2023-01-28T08:41:09;11.03;;;4.40;;
28431;SDS011;15664;51.302;7.744;2023-01-28T08:43:34;11.27;;;4.50;;
28431;SDS011;15664;51.302;7.744;2023-01-28T08:46:00;12.60;;;4.87;;
28431;SDS011;15664;51.302;7.744;2023-01-28T08:48:25;10.63;;;4.70;;
28431;SDS011;15664;51.302;7.744;2023-01-28T08:50:51;14.20;;;5.23;;
28431;SDS011;15664;51.302;7.744;2023-01-28T08:53:17;12.33;;;5.27;;
28431;SDS011;15664;51.302;7.744;2023-01-28T08:55:44;12.02;;;4.80;;
28431;SDS011;15664;51.302;7.744;2023-01-28T08:58:12;15.93;;;4.20;;
28431;SDS011;15664;51.302;7.744;2023-01-28T09:00:39;11.45;;;4.25;;
28431;SDS011;15664;51.302;7.744;2023-01-28T09:03:05;12.05;;;4.57;;
28431;SDS011;15664;51.302;7.744;2023-01-28T09:05:32;13.10;;;4.70;;
28431;SDS011;15664;51.302;7.744;2023-01-28T09:08:02;10.70;;;4.20;;
28431;SDS011;15664;51.302;7.744;2023-01-28T09:10:29;11.20;;;4.18;;
28431;SDS011;15664;51.302;7.744;2023-01-28T09:12:54;12.67;;;4.70;;
28431;SDS011;15664;51.302;7.744;2023-01-28T09:15:20;12.70;;;5.00;;
28431;SDS011;15664;51.302;7.744;2023-01-28T09:17:45;14.33;;;6.73;;
28431;SDS011;15664;51.302;7.744;2023-01-28T09:20:10;12.30;;;5.10;;
28431;SDS011;15664;51.302;7.744;2023-01-28T09:22:36;11.32;;;4.55;;
28431;SDS011;15664;51.302;7.744;2023-01-28T09:25:02;13.55;;;5.70;;
28431;SDS011;15664;51.302;7.744;2023-01-28T09:27:28;12.37;;;5.63;;
28431;SDS011;15664;51.302;7.744;2023-01-28T09:29:53;10.13;;;3.70;;
28431;SDS011;15664;51.302;7.744;2023-01-28T09:32:19;9.87;;;4.20;;
28431;SDS011;15664;51.302;7.744;2023-01-28T09:34:44;7.73;;;2.40;;
28431;SDS011;15664;51.302;7.744;2023-01-28T09:37:10;12.13;;;4.50;;
28431;SDS011;15664;51.302;7.744;2023-01-28T09:39:35;11.98;;;4.40;;
28431;SDS011;15664;51.302;7.744;2023-01-28T09:44:47;11.82;;;4.55;;
28431;SDS011;15664;51.302;7.744;2023-01-28T09:47:31;11.27;;;4.80;;
28431;SDS011;15664;51.302;7.744;2023-01-28T09:50:04;11.55;;;4.28;;
28431;SDS011;15664;51.302;7.744;2023-01-28T09:52:36;12.65;;;5.10;;
28431;SDS011;15664;51.302;7.744;2023-01-28T09:55:52;12.63;;;4.68;;
28431;SDS011;15664;51.302;7.744;2023-01-28T09:57:57;13.35;;;5.22;;
28431;SDS011;15664;51.302;7.744;2023-01-28T10:00:23;12.67;;;4.80;;
28431;SDS011;15664;51.302;7.744;2023-01-28T10:03:07;8.55;;;3.78;;
28431;SDS011;15664;51.302;7.744;2023-01-28T10:08:43;9.85;;;4.28;;
28431;SDS011;15664;51.302;7.744;2023-01-28T10:14:12;12.38;;;4.60;;
28431;SDS011;15664;51.302;7.744;2023-01-28T10:16:55;11.77;;;4.13;;
28431;SDS011;15664;51.302;7.744;2023-01-28T10:19:32;9.73;;;3.95;;
28431;SDS011;15664;51.302;7.744;2023-01-28T10:22:04;13.38;;;4.60;;
28431;SDS011;15664;51.302;7.744;2023-01-28T10:24:44;12.82;;;4.72;;
28431;SDS011;15664;51.302;7.744;2023-01-28T10:27:28;12.63;;;4.57;;
28431;SDS011;15664;51.302;7.744;2023-01-28T10:29:54;13.23;;;4.63;;
28431;SDS011;15664;51.302;7.744;2023-01-28T10:32:29;10.05;;;3.90;;
28431;SDS011;15664;51.302;7.744;2023-01-28T10:34:59;10.38;;;4.22;;
28431;SDS011;15664;51.302;7.744;2023-01-28T10:37:27;10.90;;;4.17;;
28431;SDS011;15664;51.302;7.744;2023-01-28T10:39:56;12.88;;;4.70;;
28431;SDS011;15664;51.302;7.744;2023-01-28T10:42:29;5.45;;;2.20;;
28431;SDS011;15664;51.302;7.744;2023-01-28T10:47:32;12.50;;;4.67;;
28431;SDS011;15664;51.302;7.744;2023-01-28T10:50:14;11.60;;;4.68;;
28431;SDS011;15664;51.302;7.744;2023-01-28T10:52:52;12.60;;;5.15;;
28431;SDS011;15664;51.302;7.744;2023-01-28T10:55:17;12.35;;;5.25;;
28431;SDS011;15664;51.302;7.744;2023-01-28T10:57:43;10.40;;;4.40;;
28431;SDS011;15664;51.302;7.744;2023-01-28T11:00:10;14.40;;;5.33;;
28431;SDS011;15664;51.302;7.744;2023-01-28T11:02:36;13.05;;;4.85;;
28431;SDS011;15664;51.302;7.744;2023-01-28T11:07:41;12.90;;;5.20;;
28431;SDS011;15664;51.302;7.744;2023-01-28T11:10:23;11.77;;;4.80;;
28431;SDS011;15664;51.302;7.744;2023-01-28T11:12:58;12.57;;;4.70;;
28431;SDS011;15664;51.302;7.744;2023-01-28T11:15:25;11.13;;;4.95;;
28431;SDS011;15664;51.302;7.744;2023-01-28T11:18:14;10.97;;;4.17;;
28431;SDS011;15664;51.302;7.744;2023-01-28T11:20:41;8.93;;;3.90;;
28431;SDS011;15664;51.302;7.744;2023-01-28T11:23:17;12.50;;;4.85;;
28431;SDS011;15664;51.302;7.744;2023-01-28T11:25:57;11.07;;;4.50;;
28431;SDS011;15664;51.302;7.744;2023-01-28T11:28:24;9.85;;;4.07;;
28431;SDS011;15664;51.302;7.744;2023-01-28T11:30:51;13.20;;;4.90;;
28431;SDS011;15664;51.302;7.744;2023-01-28T11:33:21;11.77;;;4.50;;
28431;SDS011;15664;51.302;7.744;2023-01-28T11:35:56;12.35;;;4.13;;
28431;SDS011;15664;51.302;7.744;2023-01-28T11:38:27;9.87;;;4.63;;
28431;SDS011;15664;51.302;7.744;2023-01-28T11:40:54;14.00;;;5.68;;
28431;SDS011;15664;51.302;7.744;2023-01-28T11:43:22;10.53;;;4.87;;
28431;SDS011;15664;51.302;7.744;2023-01-28T11:54:26;15.40;;;6.25;;
28431;SDS011;15664;51.302;7.744;2023-01-28T12:02:45;11.40;;;4.20;;
28431;SDS011;15664;51.302;7.744;2023-01-28T12:05:21;10.70;;;3.60;;
28431;SDS011;15664;51.302;7.744;2023-01-28T12:19:38;12.33;;;4.90;;
28431;SDS011;15664;51.302;7.744;2023-01-28T12:27:49;12.27;;;5.38;;
28431;SDS011;15664;51.302;7.744;2023-01-28T12:30:34;14.15;;;5.13;;
28431;SDS011;15664;51.302;7.744;2023-01-28T12:33:14;13.73;;;5.17;;
28431;SDS011;15664;51.302;7.744;2023-01-28T12:35:52;11.50;;;5.05;;
28431;SDS011;15664;51.302;7.744;2023-01-28T12:38:40;7.53;;;3.65;;
28431;SDS011;15664;51.302;7.744;2023-01-28T12:41:17;10.15;;;3.30;;
28431;SDS011;15664;51.302;7.744;2023-01-28T12:43:48;12.48;;;4.57;;
28431;SDS011;15664;51.302;7.744;2023-01-28T12:48:46;12.43;;;4.95;;
28431;SDS011;15664;51.302;7.744;2023-01-28T12:51:17;9.70;;;4.40;;
28431;SDS011;15664;51.302;7.744;2023-01-28T12:56:30;13.90;;;5.67;;
28431;SDS011;15664;51.302;7.744;2023-01-28T12:59:01;13.82;;;4.82;;
28431;SDS011;15664;51.302;7.744;2023-01-28T13:01:36;11.73;;;5.03;;
28431;SDS011;15664;51.302;7.744;2023-01-28T13:04:17;16.85;;;5.32;;
28431;SDS011;15664;51.302;7.744;2023-01-28T13:06:54;12.77;;;5.63;;
28431;SDS011;15664;51.302;7.744;2023-01-28T13:09:23;12.40;;;5.10;;
28431;SDS011;15664;51.302;7.744;2023-01-28T13:11:51;12.68;;;5.10;;
28431;SDS011;15664;51.302;7.744;2023-01-28T13:14:27;13.02;;;5.32;;
28431;SDS011;15664;51.302;7.744;2023-01-28T13:16:54;10.77;;;4.50;;
28431;SDS011;15664;51.302;7.744;2023-01-28T13:19:21;10.90;;;5.23;;
28431;SDS011;15664;51.302;7.744;2023-01-28T13:21:48;10.98;;;4.47;;
28431;SDS011;15664;51.302;7.744;2023-01-28T13:29:19;14.63;;;6.07;;
28431;SDS011;15664;51.302;7.744;2023-01-28T13:31:53;13.63;;;4.90;;
28431;SDS011;15664;51.302;7.744;2023-01-28T13:34:31;12.38;;;4.93;;
28431;SDS011;15664;51.302;7.744;2023-01-28T13:37:02;9.70;;;4.30;;
28431;SDS011;15664;51.302;7.744;2023-01-28T13:39:31;14.93;;;6.57;;
28431;SDS011;15664;51.302;7.744;2023-01-28T13:44:47;10.88;;;5.10;;
28431;SDS011;15664;51.302;7.744;2023-01-28T13:47:26;12.15;;;5.15;;
28431;SDS011;15664;51.302;7.744;2023-01-28T13:50:13;11.20;;;5.13;;
28431;SDS011;15664;51.302;7.744;2023-01-28T13:55:37;17.95;;;7.38;;
28431;SDS011;15664;51.302;7.744;2023-01-28T14:00:35;10.60;;;5.47;;
28431;SDS011;15664;51.302;7.744;2023-01-28T14:03:09;9.70;;;4.53;;
28431;SDS011;15664;51.302;7.744;2023-01-28T14:17:50;12.90;;;5.18;;
28431;SDS011;15664;51.302;7.744;2023-01-28T14:23:03;10.93;;;4.55;;
28431;SDS011;15664;51.302;7.744;2023-01-28T14:31:25;10.30;;;3.83;;
28431;SDS011;15664;51.302;7.744;2023-01-28T14:33:53;11.57;;;4.70;;
28431;SDS011;15664;51.302;7.744;2023-01-28T14:36:22;10.68;;;4.63;;
28431;SDS011;15664;51.302;7.744;2023-01-28T14:38:49;12.40;;;5.13;;
28431;SDS011;15664;51.302;7.744;2023-01-28T14:41:20;11.23;;;5.03;;
28431;SDS011;15664;51.302;7.744;2023-01-28T14:43:49;12.50;;;4.88;;
28431;SDS011;15664;51.302;7.744;2023-01-28T14:46:30;10.63;;;4.90;;
28431;SDS011;15664;51.302;7.744;2023-01-28T14:49:18;11.10;;;4.70;;
28431;SDS011;15664;51.302;7.744;2023-01-28T14:54:55;9.65;;;4.15;;
28431;SDS011;15664;51.302;7.744;2023-01-28T15:00:01;14.40;;;5.53;;
28431;SDS011;15664;51.302;7.744;2023-01-28T15:02:32;10.33;;;3.93;;
28431;SDS011;15664;51.302;7.744;2023-01-28T15:05:08;13.00;;;5.28;;
28431;SDS011;15664;51.302;7.744;2023-01-28T15:07:37;13.43;;;4.90;;
28431;SDS011;15664;51.302;7.744;2023-01-28T15:12:43;12.93;;;4.68;;
28431;SDS011;15664;51.302;7.744;2023-01-28T15:17:53;10.50;;;4.78;;
28431;SDS011;15664;51.302;7.744;2023-01-28T15:20:24;13.88;;;5.78;;
28431;SDS011;15664;51.302;7.744;2023-01-28T15:22:50;14.68;;;5.32;;
28431;SDS011;15664;51.302;7.744;2023-01-28T15:25:17;13.53;;;5.80;;
28431;SDS011;15664;51.302;7.744;2023-01-28T15:27:45;12.63;;;5.88;;
28431;SDS011;15664;51.302;7.744;2023-01-28T15:30:17;13.93;;;5.10;;
28431;SDS011;15664;51.302;7.744;2023-01-28T15:35:30;16.65;;;6.07;;
28431;SDS011;15664;51.302;7.744;2023-01-28T15:37:57;13.33;;;5.67;;
28431;SDS011;15664;51.302;7.744;2023-01-28T15:40:22;13.00;;;5.25;;
28431;SDS011;15664;51.302;7.744;2023-01-28T15:42:50;14.63;;;5.70;;
28431;SDS011;15664;51.302;7.744;2023-01-28T15:45:18;15.67;;;6.70;;
28431;SDS011;15664;51.302;7.744;2023-01-28T15:47:46;16.30;;;5.85;;
28431;SDS011;15664;51.302;7.744;2023-01-28T15:50:16;22.33;;;9.27;;
28431;SDS011;15664;51.302;7.744;2023-01-28T15:52:46;15.20;;;7.32;;
28431;SDS011;15664;51.302;7.744;2023-01-28T15:55:26;13.90;;;6.47;;
28431;SDS011;15664;51.302;7.744;2023-01-28T15:58:16;16.10;;;7.35;;
28431;SDS011;15664;51.302;7.744;2023-01-28T16:00:43;18.67;;;8.18;;
28431;SDS011;15664;51.302;7.744;2023-01-28T16:03:15;20.30;;;9.52;;
28431;SDS011;15664;51.302;7.744;2023-01-28T16:05:51;21.03;;;8.60;;
28431;SDS011;15664;51.302;7.744;2023-01-28T16:08:33;21.02;;;7.47;;
28431;SDS011;15664;51.302;7.744;2023-01-28T16:11:00;18.50;;;7.90;;
28431;SDS011;15664;51.302;7.744;2023-01-28T16:13:26;15.43;;;6.87;;
28431;SDS011;15664;51.302;7.744;2023-01-28T16:15:55;20.55;;;8.60;;
28431;SDS011;15664;51.302;7.744;2023-01-28T16:18:44;14.60;;;6.68;;
28431;SDS011;15664;51.302;7.744;2023-01-28T16:21:17;11.48;;;5.97;;
28431;SDS011;15664;51.302;7.744;2023-01-28T16:23:50;12.13;;;6.15;;
28431;SDS011;15664;51.302;7.744;2023-01-28T16:26:29;16.42;;;6.63;;
28431;SDS011;15664;51.302;7.744;2023-01-28T16:28:56;16.47;;;7.37;;
28431;SDS011;15664;51.302;7.744;2023-01-28T16:31:23;14.10;;;6.50;;
28431;SDS011;15664;51.302;7.744;2023-01-28T16:33:48;15.33;;;5.63;;
28431;SDS011;15664;51.302;7.744;2023-01-28T16:36:14;16.17;;;7.03;;
28431;SDS011;15664;51.302;7.744;2023-01-28T16:38:43;18.42;;;7.03;;
28431;SDS011;15664;51.302;7.744;2023-01-28T16:41:12;9.13;;;4.87;;
28431;SDS011;15664;51.302;7.744;2023-01-28T16:43:39;14.73;;;6.55;;
28431;SDS011;15664;51.302;7.744;2023-01-28T16:46:07;19.93;;;7.97;;
28431;SDS011;15664;51.302;7.744;2023-01-28T16:48:35;13.85;;;5.88;;
28431;SDS011;15664;51.302;7.744;2023-01-28T16:51:00;18.10;;;7.53;;
28431;SDS011;15664;51.302;7.744;2023-01-28T16:53:27;21.17;;;7.83;;
28431;SDS011;15664;51.302;7.744;2023-01-28T16:55:56;15.52;;;6.95;;